createdAt,value
2022-12-11T00:00:25.766Z,67.18
2022-12-11T00:02:53.583Z,68.16
2022-12-11T00:05:21.154Z,68.50
2022-12-11T00:07:48.773Z,67.92
2022-12-11T00:10:17.794Z,67.83
2022-12-11T00:12:47.078Z,67.60
2022-12-11T00:15:14.879Z,68.60
2022-12-11T00:17:43.974Z,69.08
2022-12-11T00:20:12.721Z,68.90
2022-12-11T00:22:41.500Z,68.49
2022-12-11T00:25:10.233Z,68.47
2022-12-11T00:27:38.021Z,68.73
2022-12-11T00:30:08.888Z,67.66
2022-12-11T00:32:37.818Z,67.82
2022-12-11T00:35:06.156Z,68.13
2022-12-11T00:37:34.384Z,67.55
2022-12-11T00:40:02.115Z,67.15
2022-12-11T00:42:29.776Z,67.52
2022-12-11T00:44:57.803Z,67.34
2022-12-11T00:47:27.068Z,67.28
2022-12-11T00:49:54.911Z,68.08
2022-12-11T00:52:22.585Z,67.32
2022-12-11T00:54:50.165Z,67.62
2022-12-11T00:57:17.865Z,68.03
2022-12-11T00:59:45.576Z,67.63
2022-12-11T01:02:13.294Z,67.29
2022-12-11T01:04:42.425Z,67.55
2022-12-11T01:07:10.057Z,67.79
2022-12-11T01:09:55.652Z,67.01
2022-12-11T01:12:23.391Z,67.37
2022-12-11T01:14:50.954Z,66.34
2022-12-11T01:17:18.536Z,66.92
2022-12-11T01:19:47.946Z,66.83
2022-12-11T01:22:15.690Z,66.82
2022-12-11T01:24:43.552Z,67.28
2022-12-11T01:27:12.353Z,67.06
2022-12-11T01:29:40.172Z,67.54
2022-12-11T01:32:07.957Z,67.90
2022-12-11T01:34:35.618Z,67.63
2022-12-11T01:37:04.578Z,67.99
2022-12-11T01:39:32.117Z,66.96
2022-12-11T01:42:00.409Z,67.54
2022-12-11T01:45:05.381Z,67.66
2022-12-11T01:47:33.203Z,67.39
2022-12-11T01:50:01.001Z,67.96
2022-12-11T01:52:30.717Z,68.41
2022-12-11T01:54:58.630Z,67.60
2022-12-11T01:57:26.448Z,68.05
2022-12-11T01:59:54.249Z,68.36
2022-12-11T02:02:25.798Z,69.09
2022-12-11T02:04:53.431Z,69.31
2022-12-11T02:07:21.374Z,69.04
2022-12-11T02:09:51.084Z,69.45
2022-12-11T02:12:25.787Z,69.36
2022-12-11T02:15:00.917Z,68.41
2022-12-11T02:17:37.023Z,69.58
2022-12-11T02:20:12.180Z,69.38
2022-12-11T02:23:07.999Z,69.02
2022-12-11T02:25:46.865Z,68.86
2022-12-11T02:28:20.927Z,68.98
2022-12-11T02:30:52.390Z,69.11
2022-12-11T02:33:24.735Z,68.67
2022-12-11T02:35:52.942Z,68.97
2022-12-11T02:38:24.888Z,69.41
2022-12-11T02:40:54.818Z,69.66
2022-12-11T02:43:25.376Z,69.61
2022-12-11T02:45:55.170Z,69.22
2022-12-11T02:48:25.137Z,69.54
2022-12-11T02:50:59.002Z,69.24
2022-12-11T02:53:29.887Z,69.11
2022-12-11T02:56:03.284Z,69.22
2022-12-11T02:58:34.749Z,69.10
2022-12-11T03:01:02.615Z,69.13
2022-12-11T03:03:31.609Z,68.82
2022-12-11T03:05:59.358Z,68.94
2022-12-11T03:08:27.187Z,68.97
2022-12-11T03:10:54.757Z,68.99
2022-12-11T03:13:23.890Z,68.93
2022-12-11T03:16:03.378Z,68.83
2022-12-11T03:18:37.385Z,68.51
2022-12-11T03:21:13.764Z,68.48
2022-12-11T03:23:47.897Z,69.14
2022-12-11T03:26:18.425Z,69.12
2022-12-11T03:28:50.047Z,69.06
2022-12-11T03:31:31.384Z,69.19
2022-12-11T03:34:04.549Z,68.84
2022-12-11T03:36:35.717Z,69.47
2022-12-11T03:39:08.855Z,69.09
2022-12-11T03:41:39.446Z,69.79
2022-12-11T03:44:08.090Z,69.31
2022-12-11T03:46:40.959Z,70.04
2022-12-11T03:49:11.892Z,69.72
2022-12-11T03:51:40.465Z,68.96
2022-12-11T03:54:09.119Z,68.96
2022-12-11T03:56:40.008Z,68.71
2022-12-11T03:59:07.598Z,69.25
2022-12-11T04:01:36.231Z,68.83
2022-12-11T04:04:05.586Z,68.95
2022-12-11T04:06:33.238Z,68.59
2022-12-11T04:09:00.826Z,68.57
2022-12-11T04:11:37.154Z,68.62
2022-12-11T04:14:21.197Z,68.43
2022-12-11T04:16:48.848Z,68.37
2022-12-11T04:19:36.077Z,69.02
2022-12-11T04:22:21.062Z,68.11
2022-12-11T04:24:49.217Z,68.68
2022-12-11T04:27:37.290Z,68.73
2022-12-11T04:30:07.072Z,69.21
2022-12-11T04:32:34.807Z,68.44
2022-12-11T04:35:04.028Z,68.44
2022-12-11T04:37:31.661Z,68.89
2022-12-11T04:39:59.597Z,68.73
2022-12-11T04:42:27.216Z,68.49
2022-12-11T04:44:54.824Z,68.30
2022-12-11T04:47:22.437Z,68.96
2022-12-11T04:49:50.006Z,68.66
2022-12-11T04:52:19.583Z,68.11
2022-12-11T04:54:47.292Z,68.10
2022-12-11T04:57:14.916Z,68.66
2022-12-11T04:59:42.641Z,68.72
2022-12-11T05:02:10.215Z,68.53
2022-12-11T05:04:38.066Z,68.69
2022-12-11T05:07:05.827Z,68.43
2022-12-11T05:09:35.316Z,68.43
2022-12-11T05:12:03.194Z,68.48
2022-12-11T05:14:32.064Z,67.63
2022-12-11T05:17:00.032Z,68.09
2022-12-11T05:19:28.927Z,67.36
2022-12-11T05:21:57.575Z,67.81
2022-12-11T05:24:26.307Z,67.74
2022-12-11T05:26:55.349Z,67.49
2022-12-11T05:29:23.011Z,67.49
2022-12-11T05:31:51.396Z,66.86
2022-12-11T05:34:19.201Z,66.32
2022-12-11T05:36:47.214Z,66.62
2022-12-11T05:39:15.087Z,66.82
2022-12-11T05:41:42.812Z,66.89
2022-12-11T05:44:13.518Z,66.44
2022-12-11T05:46:41.889Z,66.58
2022-12-11T05:49:11.343Z,65.25
2022-12-11T05:51:39.620Z,65.83
2022-12-11T05:54:07.471Z,66.11
2022-12-11T05:56:36.289Z,66.71
2022-12-11T05:59:06.452Z,66.18
2022-12-11T06:01:38.037Z,66.97
2022-12-11T06:04:07.785Z,66.64
2022-12-11T06:06:38.437Z,66.25
2022-12-11T06:09:06.531Z,66.25
2022-12-11T06:11:35.259Z,65.71
2022-12-11T06:14:03.927Z,65.52
2022-12-11T06:16:32.226Z,65.94
2022-12-11T06:19:02.381Z,65.72
2022-12-11T06:21:32.067Z,65.65
2022-12-11T06:24:00.988Z,65.45
2022-12-11T06:26:29.666Z,65.46
2022-12-11T06:28:57.350Z,65.55
2022-12-11T06:31:25.133Z,65.80
2022-12-11T06:33:52.791Z,65.73
2022-12-11T06:36:23.934Z,65.41
2022-12-11T06:38:51.942Z,64.76
2022-12-11T06:41:20.150Z,64.90
2022-12-11T06:43:48.415Z,64.46
2022-12-11T06:46:18.755Z,64.20
2022-12-11T06:48:47.049Z,64.51
2022-12-11T06:51:16.824Z,64.92
2022-12-11T06:53:46.652Z,64.46
2022-12-11T06:56:16.062Z,64.64
2022-12-11T06:58:44.639Z,64.54
2022-12-11T07:01:18.796Z,64.84
2022-12-11T07:03:47.102Z,64.96
2022-12-11T07:06:15.301Z,65.32
2022-12-11T07:08:43.946Z,65.51
2022-12-11T07:11:14.515Z,66.10
2022-12-11T07:13:43.046Z,65.29
2022-12-11T07:16:12.282Z,64.92
2022-12-11T07:18:40.644Z,64.99
2022-12-11T07:21:10.599Z,64.95
2022-12-11T07:23:38.405Z,64.85
2022-12-11T07:26:07.807Z,64.43
2022-12-11T07:28:37.582Z,64.04
2022-12-11T07:31:09.491Z,63.79
2022-12-11T07:33:37.484Z,64.07
2022-12-11T07:36:07.464Z,64.28
2022-12-11T07:38:37.189Z,64.56
2022-12-11T07:41:05.480Z,64.53
2022-12-11T07:43:33.869Z,64.67
2022-12-11T07:46:07.221Z,64.49
2022-12-11T07:48:36.187Z,64.82
2022-12-11T07:51:11.005Z,64.44
2022-12-11T07:53:38.878Z,64.16
2022-12-11T07:56:07.268Z,63.67
2022-12-11T07:58:34.937Z,64.88
2022-12-11T08:01:04.059Z,64.38
2022-12-11T08:03:31.687Z,64.69
2022-12-11T08:05:59.272Z,64.66
2022-12-11T08:08:27.910Z,64.25
2022-12-11T08:10:55.501Z,64.48
2022-12-11T08:13:23.451Z,64.27
2022-12-11T08:15:51.477Z,64.99
2022-12-11T08:18:20.565Z,64.70
2022-12-11T08:20:48.277Z,65.33
2022-12-11T08:23:15.815Z,65.21
2022-12-11T08:25:43.478Z,64.71
2022-12-11T08:28:11.000Z,64.87
2022-12-11T08:30:40.159Z,65.08
2022-12-11T08:33:07.972Z,65.74
2022-12-11T08:35:40.389Z,65.79
2022-12-11T08:38:08.124Z,65.12
2022-12-11T08:40:35.847Z,65.81
2022-12-11T08:43:03.393Z,65.12
2022-12-11T08:45:31.004Z,64.71
2022-12-11T08:47:59.371Z,65.05
2022-12-11T08:50:27.118Z,65.12
2022-12-11T08:52:57.488Z,64.99
2022-12-11T08:55:25.455Z,65.33
2022-12-11T08:57:52.999Z,64.99
2022-12-11T09:00:20.918Z,65.82
2022-12-11T09:02:49.296Z,64.94
2022-12-11T09:05:17.981Z,65.84
2022-12-11T09:07:45.797Z,65.76
2022-12-11T09:10:14.909Z,65.79
2022-12-11T09:12:42.848Z,65.54
2022-12-11T09:15:11.565Z,65.26
2022-12-11T09:17:39.234Z,64.85
2022-12-11T09:20:07.888Z,65.02
2022-12-11T09:22:35.647Z,65.24
2022-12-11T09:25:03.487Z,65.68
2022-12-11T09:27:32.523Z,66.08
2022-12-11T09:30:00.206Z,65.81
2022-12-11T09:32:28.084Z,65.35
2022-12-11T09:34:55.787Z,65.99
2022-12-11T09:37:23.515Z,66.32
2022-12-11T09:39:54.128Z,66.57
2022-12-11T09:42:35.455Z,66.08
2022-12-11T09:45:06.974Z,65.70
2022-12-11T09:47:37.841Z,65.28
2022-12-11T09:50:16.650Z,65.65
2022-12-11T09:52:55.936Z,65.42
2022-12-11T09:55:25.570Z,64.96
2022-12-11T09:58:02.118Z,65.71
2022-12-11T10:00:39.008Z,66.25
2022-12-11T10:03:50.269Z,64.99
2022-12-11T10:06:25.135Z,65.03
2022-12-11T10:09:01.650Z,64.41
2022-12-11T10:11:44.424Z,64.79
2022-12-11T10:14:20.720Z,64.04
2022-12-11T10:16:52.958Z,65.12
2022-12-11T10:19:23.072Z,64.15
2022-12-11T10:21:52.807Z,64.70
2022-12-11T10:24:57.826Z,64.62
2022-12-11T10:27:21.143Z,64.61
2022-12-11T10:29:52.607Z,64.47
2022-12-11T10:32:25.338Z,64.71
2022-12-11T10:35:00.303Z,64.72
2022-12-11T10:37:28.101Z,64.16
2022-12-11T10:39:55.747Z,64.29
2022-12-11T10:42:24.425Z,64.67
2022-12-11T10:45:00.418Z,63.58
2022-12-11T10:47:30.160Z,64.15
2022-12-11T10:50:00.165Z,63.95
2022-12-11T10:52:31.654Z,63.38
2022-12-11T10:55:02.673Z,64.10
2022-12-11T10:57:33.557Z,63.48
2022-12-11T11:00:04.311Z,63.34
2022-12-11T11:02:38.801Z,63.00
2022-12-11T11:05:14.956Z,63.33
2022-12-11T11:07:42.888Z,63.46
2022-12-11T11:10:18.498Z,63.03
2022-12-11T11:12:48.280Z,62.95
2022-12-11T11:15:19.408Z,63.94
2022-12-11T11:17:55.369Z,64.25
2022-12-11T11:20:26.680Z,63.56
2022-12-11T11:22:56.243Z,63.28
2022-12-11T11:25:26.330Z,63.33
2022-12-11T11:27:56.121Z,64.12
2022-12-11T11:30:26.017Z,64.60
2022-12-11T11:32:57.436Z,63.76
2022-12-11T11:35:27.305Z,63.72
2022-12-11T11:38:03.098Z,63.63
2022-12-11T11:40:34.258Z,64.25
2022-12-11T11:43:13.663Z,63.01
2022-12-11T11:45:47.859Z,61.85
2022-12-11T11:48:29.514Z,62.72
2022-12-11T11:50:58.426Z,61.64
2022-12-11T11:53:31.445Z,62.33
2022-12-11T11:56:06.904Z,61.42
2022-12-11T11:58:44.803Z,62.08
2022-12-11T12:01:17.227Z,61.64
2022-12-11T12:03:48.454Z,61.38
2022-12-11T12:06:27.039Z,61.91
2022-12-11T12:09:03.543Z,61.07
2022-12-11T12:11:39.030Z,60.49
2022-12-11T12:14:43.654Z,60.59
2022-12-11T12:17:15.246Z,60.95
2022-12-11T12:19:51.248Z,61.27
2022-12-11T12:22:51.032Z,60.62
2022-12-11T12:25:25.549Z,61.10
2022-12-11T12:28:01.190Z,60.50
2022-12-11T12:30:33.300Z,61.66
2022-12-11T12:33:15.814Z,61.41
2022-12-11T12:35:52.447Z,60.94
2022-12-11T12:38:24.569Z,61.37
2022-12-11T12:41:03.780Z,60.63
2022-12-11T12:43:44.985Z,61.01
2022-12-11T12:46:23.057Z,60.98
2022-12-11T12:48:53.362Z,60.34
2022-12-11T12:51:22.689Z,61.39
2022-12-11T12:53:55.577Z,60.56
2022-12-11T12:56:25.337Z,61.52
2022-12-11T12:58:53.245Z,61.46
2022-12-11T13:01:23.867Z,61.77
2022-12-11T13:03:55.775Z,63.14
2022-12-11T13:06:34.050Z,62.03
2022-12-11T13:09:14.481Z,61.67
2022-12-11T13:11:42.794Z,62.02
2022-12-11T13:14:29.195Z,62.85
2022-12-11T13:17:26.454Z,61.83
2022-12-11T13:20:14.913Z,62.33
2022-12-11T13:22:54.680Z,62.61
2022-12-11T13:25:27.079Z,62.92
2022-12-11T13:28:05.482Z,62.58
2022-12-11T13:30:34.500Z,62.38
2022-12-11T13:33:06.016Z,62.49
2022-12-11T13:35:35.223Z,62.37
2022-12-11T13:38:08.814Z,62.84
2022-12-11T13:40:41.073Z,63.05
2022-12-11T13:43:18.259Z,62.22
2022-12-11T13:45:49.992Z,61.34
2022-12-11T13:48:24.811Z,61.87
2022-12-11T13:50:54.489Z,60.90
2022-12-11T13:53:24.314Z,61.55
2022-12-11T13:55:59.053Z,61.57
2022-12-11T13:58:27.135Z,61.48
2022-12-11T14:01:14.084Z,61.26
2022-12-11T14:03:44.471Z,61.64
2022-12-11T14:06:18.582Z,61.42
2022-12-11T14:08:51.065Z,61.82
2022-12-11T14:11:24.840Z,61.95
2022-12-11T14:13:52.544Z,60.66
2022-12-11T14:16:22.039Z,61.89
2022-12-11T14:18:52.031Z,61.33
2022-12-11T14:21:21.164Z,61.46
2022-12-11T14:23:55.739Z,61.13
2022-12-11T14:26:25.842Z,61.66
2022-12-11T14:28:54.323Z,61.92
2022-12-11T14:31:29.679Z,61.78
2022-12-11T14:34:03.019Z,62.63
2022-12-11T14:36:33.003Z,62.76
2022-12-11T14:39:07.210Z,61.74
2022-12-11T14:41:43.832Z,61.72
2022-12-11T14:44:15.880Z,62.36
2022-12-11T14:46:47.307Z,62.21
2022-12-11T14:49:22.144Z,61.67
2022-12-11T14:51:51.694Z,62.29
2022-12-11T14:54:26.385Z,62.02
2022-12-11T14:56:55.406Z,62.38
2022-12-11T14:59:30.102Z,62.47
2022-12-11T15:02:01.525Z,62.40
2022-12-11T15:04:32.050Z,62.30
2022-12-11T15:07:00.450Z,62.10
2022-12-11T15:09:37.094Z,62.98
2022-12-11T15:12:12.344Z,63.04
2022-12-11T15:14:47.979Z,63.01
2022-12-11T15:17:16.495Z,62.87
2022-12-11T15:19:51.298Z,63.05
2022-12-11T15:22:20.741Z,63.58
2022-12-11T15:24:52.625Z,63.60
2022-12-11T15:27:26.928Z,63.48
2022-12-11T15:29:54.708Z,63.96
2022-12-11T15:32:22.697Z,63.80
2022-12-11T15:34:52.965Z,63.59
2022-12-11T15:37:22.884Z,62.51
2022-12-11T15:39:52.575Z,62.92
2022-12-11T15:42:25.504Z,63.81
2022-12-11T15:44:53.517Z,63.67
2022-12-11T15:47:23.410Z,63.55
2022-12-11T15:49:51.025Z,64.12
2022-12-11T15:52:18.539Z,63.79
2022-12-11T15:54:46.025Z,63.61
2022-12-11T15:57:18.772Z,64.39
2022-12-11T15:59:48.694Z,63.23
2022-12-11T16:02:16.810Z,63.63
2022-12-11T16:04:44.686Z,63.33
2022-12-11T16:07:17.567Z,63.23
2022-12-11T16:09:45.536Z,64.07
2022-12-11T16:12:14.980Z,63.78
2022-12-11T16:14:42.921Z,64.27
2022-12-11T16:17:11.684Z,64.43
2022-12-11T16:19:40.369Z,64.33
2022-12-11T16:22:09.519Z,64.15
2022-12-11T16:24:37.299Z,64.44
2022-12-11T16:27:05.930Z,64.57
2022-12-11T16:29:36.814Z,64.02
2022-12-11T16:32:06.933Z,64.27
2022-12-11T16:34:34.933Z,64.25
2022-12-11T16:37:03.196Z,63.81
2022-12-11T16:39:30.665Z,64.90
2022-12-11T16:41:58.186Z,64.75
2022-12-11T16:44:27.484Z,64.22
2022-12-11T16:46:56.713Z,64.08
2022-12-11T16:49:24.288Z,63.86
2022-12-11T16:51:52.122Z,63.27
2022-12-11T16:54:19.992Z,63.68
2022-12-11T16:56:47.524Z,64.07
2022-12-11T16:59:15.237Z,63.68
2022-12-11T17:01:42.923Z,63.92
2022-12-11T17:04:11.900Z,63.89
2022-12-11T17:06:39.324Z,63.70
2022-12-11T17:09:07.138Z,63.46
2022-12-11T17:11:34.988Z,63.42
2022-12-11T17:14:02.497Z,63.56
2022-12-11T17:16:30.477Z,64.09
2022-12-11T17:18:58.930Z,63.42
2022-12-11T17:21:27.757Z,63.43
2022-12-11T17:23:55.209Z,63.36
2022-12-11T17:26:23.724Z,62.98
2022-12-11T17:28:51.979Z,63.57
2022-12-11T17:31:20.627Z,63.15
2022-12-11T17:33:49.525Z,63.18
2022-12-11T17:36:20.328Z,63.00
2022-12-11T17:38:49.982Z,63.55
2022-12-11T17:41:20.758Z,63.20
2022-12-11T17:43:49.145Z,63.80
2022-12-11T17:46:17.997Z,63.71
2022-12-11T17:48:45.742Z,63.98
2022-12-11T17:51:21.153Z,64.16
2022-12-11T17:53:49.876Z,64.27
2022-12-11T17:56:18.450Z,64.37
2022-12-11T17:58:45.986Z,63.76
2022-12-11T18:01:14.029Z,64.24
2022-12-11T18:03:57.476Z,63.73
2022-12-11T18:06:47.761Z,64.65
2022-12-11T18:09:16.669Z,64.28
2022-12-11T18:11:44.257Z,65.01
2022-12-11T18:14:16.961Z,65.11
2022-12-11T18:16:45.359Z,64.83
2022-12-11T18:19:13.162Z,63.81
2022-12-11T18:21:43.740Z,64.10
2022-12-11T18:24:11.776Z,64.05
2022-12-11T18:26:42.623Z,64.92
2022-12-11T18:29:10.830Z,65.00
2022-12-11T18:31:42.343Z,64.87
2022-12-11T18:34:11.210Z,64.56
2022-12-11T18:36:40.807Z,64.66
2022-12-11T18:39:08.436Z,64.44
2022-12-11T18:41:36.011Z,64.39
2022-12-11T18:44:09.544Z,65.15
2022-12-11T18:46:37.649Z,64.87
2022-12-11T18:49:05.204Z,65.11
2022-12-11T18:51:32.857Z,65.10
2022-12-11T18:54:00.345Z,64.79
2022-12-11T18:56:28.039Z,65.55
2022-12-11T18:58:55.806Z,65.24
2022-12-11T19:01:27.017Z,65.66
2022-12-11T19:04:00.609Z,65.41
2022-12-11T19:06:33.023Z,65.90
2022-12-11T19:09:01.298Z,66.15
2022-12-11T19:11:30.937Z,65.39
2022-12-11T19:13:58.583Z,65.20
2022-12-11T19:16:30.472Z,65.75
2022-12-11T19:18:58.665Z,65.58
2022-12-11T19:21:27.141Z,65.49
2022-12-11T19:23:54.959Z,65.55
2022-12-11T19:26:24.293Z,65.57
2022-12-11T19:28:52.617Z,65.39
2022-12-11T19:31:22.543Z,65.92
2022-12-11T19:33:51.906Z,66.39
2022-12-11T19:36:21.598Z,65.86
2022-12-11T19:38:49.924Z,65.70
2022-12-11T19:41:20.701Z,65.72
2022-12-11T19:43:48.956Z,66.62
2022-12-11T19:46:17.228Z,65.96
2022-12-11T19:48:45.387Z,65.70
2022-12-11T19:51:16.196Z,66.77
2022-12-11T19:53:45.021Z,65.34
2022-12-11T19:56:13.792Z,65.33
2022-12-11T19:58:42.190Z,65.63
2022-12-11T20:01:10.751Z,66.30
2022-12-11T20:03:38.748Z,65.76
2022-12-11T20:06:08.633Z,65.97
2022-12-11T20:08:46.039Z,66.64
2022-12-11T20:11:18.594Z,66.42
2022-12-11T20:13:46.991Z,65.68
2022-12-11T20:16:15.689Z,65.11
2022-12-11T20:18:43.536Z,66.08
2022-12-11T20:21:14.436Z,65.61
2022-12-11T20:23:44.311Z,66.32
2022-12-11T20:26:14.202Z,65.45
2022-12-11T20:28:42.630Z,65.34
2022-12-11T20:31:19.539Z,66.31
2022-12-11T20:33:48.633Z,66.08
2022-12-11T20:36:17.785Z,65.70
2022-12-11T20:38:46.817Z,65.49
2022-12-11T20:41:16.052Z,65.69
2022-12-11T20:43:44.471Z,65.93
2022-12-11T20:46:14.627Z,66.10
2022-12-11T20:48:43.926Z,66.25
2022-12-11T20:51:13.565Z,66.41
2022-12-11T20:53:42.236Z,66.09
2022-12-11T20:56:13.321Z,66.27
2022-12-11T20:58:41.527Z,66.45
2022-12-11T21:01:14.938Z,67.16
2022-12-11T21:03:42.934Z,66.57
2022-12-11T21:06:10.629Z,66.88
2022-12-11T21:08:38.451Z,67.03
2022-12-11T21:11:07.308Z,67.07
2022-12-11T21:13:37.301Z,66.83
2022-12-11T21:16:06.714Z,66.96
2022-12-11T21:18:36.477Z,67.34
2022-12-11T21:21:05.317Z,67.48
2022-12-11T21:23:33.782Z,67.16
2022-12-11T21:26:01.694Z,66.34
2022-12-11T21:28:34.971Z,67.07
2022-12-11T21:31:06.162Z,66.93
2022-12-11T21:33:34.470Z,67.65
2022-12-11T21:36:03.404Z,67.45
2022-12-11T21:38:31.776Z,67.74
2022-12-11T21:40:59.949Z,67.82
2022-12-11T21:43:27.626Z,67.66
2022-12-11T21:46:02.655Z,67.88
2022-12-11T21:48:32.176Z,67.72
2022-12-11T21:51:07.359Z,67.33
2022-12-11T21:53:35.387Z,68.02
2022-12-11T21:56:07.196Z,67.62
2022-12-11T21:58:34.858Z,67.68
2022-12-11T22:01:02.504Z,67.89
2022-12-11T22:03:31.664Z,67.63
2022-12-11T22:05:59.431Z,67.86
2022-12-11T22:08:27.185Z,67.54
2022-12-11T22:10:55.669Z,68.26
2022-12-11T22:13:23.422Z,67.90
2022-12-11T22:15:52.157Z,68.00
2022-12-11T22:18:20.169Z,68.09
2022-12-11T22:20:49.223Z,67.80
2022-12-11T22:23:16.758Z,67.97
2022-12-11T22:25:44.467Z,67.12
2022-12-11T22:28:12.067Z,67.45
2022-12-11T22:30:40.588Z,68.02
2022-12-11T22:33:08.988Z,67.58
2022-12-11T22:35:38.383Z,68.15
2022-12-11T22:38:07.619Z,67.59
2022-12-11T22:40:35.461Z,67.02
2022-12-11T22:43:02.967Z,67.04
2022-12-11T22:45:30.438Z,66.39
2022-12-11T22:47:58.113Z,67.57
2022-12-11T22:50:25.764Z,67.00
2022-12-11T22:52:53.430Z,68.04
2022-12-11T22:55:22.245Z,67.17
2022-12-11T22:57:50.101Z,67.48
2022-12-11T23:00:18.189Z,67.34
2022-12-11T23:02:46.379Z,66.76
2022-12-11T23:05:14.450Z,67.07
2022-12-11T23:07:42.292Z,66.22
2022-12-11T23:10:11.200Z,66.68
2022-12-11T23:12:40.230Z,66.80
2022-12-11T23:15:09.121Z,67.04
2022-12-11T23:17:36.852Z,66.67
2022-12-11T23:20:05.737Z,66.15
2022-12-11T23:22:34.090Z,67.40
2022-12-11T23:25:02.116Z,67.17
2022-12-11T23:27:30.236Z,66.46
2022-12-11T23:29:59.088Z,66.89
2022-12-11T23:32:26.684Z,66.63
2022-12-11T23:34:54.157Z,67.29
2022-12-11T23:37:21.750Z,67.21
2022-12-11T23:39:49.407Z,67.74
2022-12-11T23:42:16.868Z,67.93
2022-12-11T23:44:44.339Z,67.90
2022-12-11T23:47:13.241Z,66.90
2022-12-11T23:49:40.698Z,67.37
2022-12-11T23:52:08.697Z,67.48
2022-12-11T23:54:36.294Z,67.31
2022-12-11T23:57:03.790Z,67.75
2022-12-11T23:59:31.219Z,67.44
